sensor_id;sensor_type;location;lat;lon;timestamp;P1;durP1;ratioP1;P2;durP2;ratioP2
5032;SDS011;2535;49.888;8.942;2023-06-24T00:00:04;45.50;;;1.70;;
5032;SDS011;2535;49.888;8.942;2023-06-24T00:02:32;45.83;;;2.40;;
5032;SDS011;2535;49.888;8.942;2023-06-24T00:04:59;55.80;;;2.47;;
5032;SDS011;2535;49.888;8.942;2023-06-24T00:07:25;47.43;;;2.33;;
5032;SDS011;2535;49.888;8.942;2023-06-24T00:09:52;45.10;;;2.03;;
5032;SDS011;2535;49.888;8.942;2023-06-24T00:12:18;44.67;;;2.10;;
5032;SDS011;2535;49.888;8.942;2023-06-24T00:14:45;44.57;;;1.83;;
5032;SDS011;2535;49.888;8.942;2023-06-24T00:17:11;44.33;;;2.00;;
5032;SDS011;2535;49.888;8.942;2023-06-24T00:19:37;44.57;;;1.90;;
5032;SDS011;2535;49.888;8.942;2023-06-24T00:22:03;44.10;;;1.93;;
5032;SDS011;2535;49.888;8.942;2023-06-24T00:24:30;47.90;;;3.40;;
5032;SDS011;2535;49.888;8.942;2023-06-24T00:26:56;46.63;;;2.37;;
5032;SDS011;2535;49.888;8.942;2023-06-24T00:29:22;45.20;;;2.37;;
5032;SDS011;2535;49.888;8.942;2023-06-24T00:31:48;45.77;;;2.37;;
5032;SDS011;2535;49.888;8.942;2023-06-24T00:34:14;46.30;;;2.63;;
5032;SDS011;2535;49.888;8.942;2023-06-24T00:36:40;50.47;;;2.13;;
5032;SDS011;2535;49.888;8.942;2023-06-24T00:39:11;47.17;;;2.37;;
5032;SDS011;2535;49.888;8.942;2023-06-24T00:41:37;45.60;;;2.00;;
5032;SDS011;2535;49.888;8.942;2023-06-24T00:44:03;45.90;;;1.50;;
5032;SDS011;2535;49.888;8.942;2023-06-24T00:46:29;45.80;;;2.27;;
5032;SDS011;2535;49.888;8.942;2023-06-24T00:48:58;47.77;;;2.70;;
5032;SDS011;2535;49.888;8.942;2023-06-24T00:51:25;47.93;;;2.57;;
5032;SDS011;2535;49.888;8.942;2023-06-24T00:53:58;48.53;;;2.13;;
5032;SDS011;2535;49.888;8.942;2023-06-24T00:56:33;46.83;;;2.23;;
5032;SDS011;2535;49.888;8.942;2023-06-24T00:59:03;46.30;;;2.43;;
5032;SDS011;2535;49.888;8.942;2023-06-24T01:01:31;45.90;;;2.30;;
5032;SDS011;2535;49.888;8.942;2023-06-24T01:03:58;46.23;;;2.60;;
5032;SDS011;2535;49.888;8.942;2023-06-24T01:06:24;50.00;;;3.00;;
5032;SDS011;2535;49.888;8.942;2023-06-24T01:08:54;46.70;;;2.47;;
5032;SDS011;2535;49.888;8.942;2023-06-24T01:11:21;47.43;;;2.67;;
5032;SDS011;2535;49.888;8.942;2023-06-24T01:13:48;46.50;;;2.20;;
5032;SDS011;2535;49.888;8.942;2023-06-24T01:16:15;45.67;;;1.73;;
5032;SDS011;2535;49.888;8.942;2023-06-24T01:18:44;51.87;;;3.17;;
5032;SDS011;2535;49.888;8.942;2023-06-24T01:21:17;47.83;;;2.57;;
5032;SDS011;2535;49.888;8.942;2023-06-24T01:24:20;59.90;;;3.47;;
5032;SDS011;2535;49.888;8.942;2023-06-24T01:26:43;52.00;;;1.70;;
5032;SDS011;2535;49.888;8.942;2023-06-24T01:29:24;47.57;;;2.30;;
5032;SDS011;2535;49.888;8.942;2023-06-24T01:31:59;46.57;;;2.30;;
5032;SDS011;2535;49.888;8.942;2023-06-24T01:37:08;48.27;;;2.60;;
5032;SDS011;2535;49.888;8.942;2023-06-24T01:39:38;48.40;;;3.10;;
5032;SDS011;2535;49.888;8.942;2023-06-24T01:42:07;50.20;;;2.60;;
5032;SDS011;2535;49.888;8.942;2023-06-24T01:44:33;51.70;;;3.13;;
5032;SDS011;2535;49.888;8.942;2023-06-24T01:47:00;48.30;;;2.70;;
5032;SDS011;2535;49.888;8.942;2023-06-24T01:49:29;47.27;;;1.80;;
5032;SDS011;2535;49.888;8.942;2023-06-24T01:51:58;49.60;;;2.47;;
5032;SDS011;2535;49.888;8.942;2023-06-24T01:54:28;49.90;;;2.80;;
5032;SDS011;2535;49.888;8.942;2023-06-24T01:56:54;48.37;;;2.53;;
5032;SDS011;2535;49.888;8.942;2023-06-24T01:59:21;47.30;;;2.17;;
5032;SDS011;2535;49.888;8.942;2023-06-24T02:01:48;49.37;;;3.23;;
5032;SDS011;2535;49.888;8.942;2023-06-24T02:04:14;55.33;;;3.67;;
5032;SDS011;2535;49.888;8.942;2023-06-24T02:06:41;50.57;;;2.60;;
5032;SDS011;2535;49.888;8.942;2023-06-24T02:09:08;50.17;;;2.97;;
5032;SDS011;2535;49.888;8.942;2023-06-24T02:11:35;59.30;;;3.50;;
5032;SDS011;2535;49.888;8.942;2023-06-24T02:14:03;49.60;;;2.60;;
5032;SDS011;2535;49.888;8.942;2023-06-24T02:16:30;48.17;;;2.70;;
5032;SDS011;2535;49.888;8.942;2023-06-24T02:18:56;52.53;;;2.77;;
5032;SDS011;2535;49.888;8.942;2023-06-24T02:21:23;47.10;;;1.90;;
5032;SDS011;2535;49.888;8.942;2023-06-24T02:23:49;49.70;;;2.20;;
5032;SDS011;2535;49.888;8.942;2023-06-24T02:26:16;51.43;;;3.40;;
5032;SDS011;2535;49.888;8.942;2023-06-24T02:28:46;49.30;;;2.83;;
5032;SDS011;2535;49.888;8.942;2023-06-24T02:31:12;48.70;;;2.20;;
5032;SDS011;2535;49.888;8.942;2023-06-24T02:33:38;47.60;;;2.37;;
5032;SDS011;2535;49.888;8.942;2023-06-24T02:36:04;46.83;;;1.50;;
5032;SDS011;2535;49.888;8.942;2023-06-24T02:38:31;47.30;;;2.37;;
5032;SDS011;2535;49.888;8.942;2023-06-24T02:40:57;49.20;;;2.33;;
5032;SDS011;2535;49.888;8.942;2023-06-24T02:43:23;47.87;;;2.30;;
5032;SDS011;2535;49.888;8.942;2023-06-24T02:45:49;47.30;;;2.17;;
5032;SDS011;2535;49.888;8.942;2023-06-24T02:48:16;47.30;;;2.67;;
5032;SDS011;2535;49.888;8.942;2023-06-24T02:50:43;47.70;;;2.40;;
5032;SDS011;2535;49.888;8.942;2023-06-24T02:53:13;48.07;;;2.53;;
5032;SDS011;2535;49.888;8.942;2023-06-24T02:55:40;51.57;;;3.27;;
5032;SDS011;2535;49.888;8.942;2023-06-24T02:58:07;48.80;;;2.70;;
5032;SDS011;2535;49.888;8.942;2023-06-24T03:00:34;49.13;;;2.40;;
5032;SDS011;2535;49.888;8.942;2023-06-24T03:03:00;47.47;;;2.70;;
5032;SDS011;2535;49.888;8.942;2023-06-24T03:05:27;47.40;;;2.33;;
5032;SDS011;2535;49.888;8.942;2023-06-24T03:07:54;48.13;;;2.17;;
5032;SDS011;2535;49.888;8.942;2023-06-24T03:10:22;47.80;;;3.13;;
5032;SDS011;2535;49.888;8.942;2023-06-24T03:12:48;51.27;;;2.93;;
5032;SDS011;2535;49.888;8.942;2023-06-24T03:15:14;49.47;;;3.30;;
5032;SDS011;2535;49.888;8.942;2023-06-24T03:17:40;62.83;;;3.40;;
5032;SDS011;2535;49.888;8.942;2023-06-24T03:20:06;67.93;;;2.63;;
5032;SDS011;2535;49.888;8.942;2023-06-24T03:22:33;48.20;;;2.17;;
5032;SDS011;2535;49.888;8.942;2023-06-24T03:24:59;48.30;;;2.63;;
5032;SDS011;2535;49.888;8.942;2023-06-24T03:27:25;47.97;;;1.80;;
5032;SDS011;2535;49.888;8.942;2023-06-24T03:29:51;49.00;;;3.00;;
5032;SDS011;2535;49.888;8.942;2023-06-24T03:32:17;47.07;;;2.33;;
5032;SDS011;2535;49.888;8.942;2023-06-24T03:34:43;47.77;;;2.70;;
5032;SDS011;2535;49.888;8.942;2023-06-24T03:37:09;47.07;;;1.93;;
5032;SDS011;2535;49.888;8.942;2023-06-24T03:39:35;47.37;;;2.00;;
5032;SDS011;2535;49.888;8.942;2023-06-24T03:42:01;47.90;;;2.00;;
5032;SDS011;2535;49.888;8.942;2023-06-24T03:44:27;49.87;;;2.83;;
5032;SDS011;2535;49.888;8.942;2023-06-24T03:46:53;48.27;;;2.50;;
5032;SDS011;2535;49.888;8.942;2023-06-24T03:49:19;52.00;;;2.90;;
5032;SDS011;2535;49.888;8.942;2023-06-24T03:51:45;47.00;;;1.50;;
5032;SDS011;2535;49.888;8.942;2023-06-24T03:54:11;47.77;;;1.93;;
5032;SDS011;2535;49.888;8.942;2023-06-24T03:56:37;49.60;;;2.90;;
5032;SDS011;2535;49.888;8.942;2023-06-24T03:59:03;46.80;;;1.83;;
5032;SDS011;2535;49.888;8.942;2023-06-24T04:01:29;47.33;;;2.10;;
5032;SDS011;2535;49.888;8.942;2023-06-24T04:03:57;48.00;;;2.50;;
5032;SDS011;2535;49.888;8.942;2023-06-24T04:06:23;48.50;;;2.40;;
5032;SDS011;2535;49.888;8.942;2023-06-24T04:08:49;49.00;;;2.60;;
5032;SDS011;2535;49.888;8.942;2023-06-24T04:11:17;48.67;;;2.70;;
5032;SDS011;2535;49.888;8.942;2023-06-24T04:13:43;48.80;;;2.13;;
5032;SDS011;2535;49.888;8.942;2023-06-24T04:16:09;50.00;;;2.67;;
5032;SDS011;2535;49.888;8.942;2023-06-24T04:18:35;49.20;;;2.93;;
5032;SDS011;2535;49.888;8.942;2023-06-24T04:21:04;49.60;;;3.03;;
5032;SDS011;2535;49.888;8.942;2023-06-24T04:23:31;49.30;;;2.40;;
5032;SDS011;2535;49.888;8.942;2023-06-24T04:25:57;48.13;;;2.13;;
5032;SDS011;2535;49.888;8.942;2023-06-24T04:28:23;49.17;;;1.93;;
5032;SDS011;2535;49.888;8.942;2023-06-24T04:30:49;49.37;;;2.37;;
5032;SDS011;2535;49.888;8.942;2023-06-24T04:33:15;48.80;;;2.47;;
5032;SDS011;2535;49.888;8.942;2023-06-24T04:35:41;55.97;;;2.97;;
5032;SDS011;2535;49.888;8.942;2023-06-24T04:38:09;49.20;;;2.50;;
5032;SDS011;2535;49.888;8.942;2023-06-24T04:40:35;48.47;;;1.90;;
5032;SDS011;2535;49.888;8.942;2023-06-24T04:43:01;49.40;;;2.47;;
5032;SDS011;2535;49.888;8.942;2023-06-24T04:45:27;57.00;;;3.93;;
5032;SDS011;2535;49.888;8.942;2023-06-24T04:47:53;48.43;;;2.60;;
5032;SDS011;2535;49.888;8.942;2023-06-24T04:50:18;47.40;;;2.40;;
5032;SDS011;2535;49.888;8.942;2023-06-24T04:52:44;50.60;;;3.60;;
5032;SDS011;2535;49.888;8.942;2023-06-24T04:55:10;48.77;;;2.27;;
5032;SDS011;2535;49.888;8.942;2023-06-24T04:57:36;54.20;;;3.40;;
5032;SDS011;2535;49.888;8.942;2023-06-24T05:00:02;47.60;;;1.83;;
5032;SDS011;2535;49.888;8.942;2023-06-24T05:02:29;49.63;;;3.20;;
5032;SDS011;2535;49.888;8.942;2023-06-24T05:04:55;52.97;;;2.60;;
5032;SDS011;2535;49.888;8.942;2023-06-24T05:07:21;47.57;;;2.00;;
5032;SDS011;2535;49.888;8.942;2023-06-24T05:09:47;48.13;;;2.50;;
5032;SDS011;2535;49.888;8.942;2023-06-24T05:12:14;48.17;;;2.40;;
5032;SDS011;2535;49.888;8.942;2023-06-24T05:14:40;48.37;;;2.47;;
5032;SDS011;2535;49.888;8.942;2023-06-24T05:17:06;49.20;;;3.00;;
5032;SDS011;2535;49.888;8.942;2023-06-24T05:19:32;49.67;;;3.13;;
5032;SDS011;2535;49.888;8.942;2023-06-24T05:21:58;49.07;;;2.90;;
5032;SDS011;2535;49.888;8.942;2023-06-24T05:24:24;53.10;;;3.00;;
5032;SDS011;2535;49.888;8.942;2023-06-24T05:26:50;49.67;;;2.43;;
5032;SDS011;2535;49.888;8.942;2023-06-24T05:29:17;49.53;;;3.10;;
5032;SDS011;2535;49.888;8.942;2023-06-24T05:31:43;50.23;;;2.60;;
5032;SDS011;2535;49.888;8.942;2023-06-24T05:34:09;51.00;;;3.03;;
5032;SDS011;2535;49.888;8.942;2023-06-24T05:36:35;52.13;;;3.70;;
5032;SDS011;2535;49.888;8.942;2023-06-24T05:39:01;50.47;;;3.07;;
5032;SDS011;2535;49.888;8.942;2023-06-24T05:41:27;49.10;;;2.80;;
5032;SDS011;2535;49.888;8.942;2023-06-24T05:44:08;50.10;;;2.93;;
5032;SDS011;2535;49.888;8.942;2023-06-24T05:46:35;48.53;;;2.63;;
5032;SDS011;2535;49.888;8.942;2023-06-24T05:49:01;50.70;;;2.77;;
5032;SDS011;2535;49.888;8.942;2023-06-24T05:51:27;48.27;;;2.57;;
5032;SDS011;2535;49.888;8.942;2023-06-24T05:53:53;48.57;;;2.73;;
5032;SDS011;2535;49.888;8.942;2023-06-24T05:56:20;48.27;;;2.43;;
5032;SDS011;2535;49.888;8.942;2023-06-24T05:58:46;49.83;;;2.97;;
5032;SDS011;2535;49.888;8.942;2023-06-24T06:01:12;48.00;;;2.50;;
5032;SDS011;2535;49.888;8.942;2023-06-24T06:03:38;49.53;;;2.73;;
5032;SDS011;2535;49.888;8.942;2023-06-24T06:06:04;50.07;;;2.80;;
5032;SDS011;2535;49.888;8.942;2023-06-24T06:08:30;52.10;;;2.93;;
5032;SDS011;2535;49.888;8.942;2023-06-24T06:10:56;48.77;;;2.30;;
5032;SDS011;2535;49.888;8.942;2023-06-24T06:13:22;47.67;;;2.63;;
5032;SDS011;2535;49.888;8.942;2023-06-24T06:15:48;47.33;;;2.33;;
5032;SDS011;2535;49.888;8.942;2023-06-24T06:18:14;48.00;;;2.20;;
5032;SDS011;2535;49.888;8.942;2023-06-24T06:20:40;47.20;;;2.20;;
5032;SDS011;2535;49.888;8.942;2023-06-24T06:23:06;48.37;;;2.57;;
5032;SDS011;2535;49.888;8.942;2023-06-24T06:25:32;50.60;;;3.80;;
5032;SDS011;2535;49.888;8.942;2023-06-24T06:27:58;47.40;;;3.00;;
5032;SDS011;2535;49.888;8.942;2023-06-24T06:30:24;47.97;;;2.00;;
5032;SDS011;2535;49.888;8.942;2023-06-24T06:32:50;47.80;;;2.87;;
5032;SDS011;2535;49.888;8.942;2023-06-24T06:35:16;47.67;;;3.10;;
5032;SDS011;2535;49.888;8.942;2023-06-24T06:37:42;46.00;;;2.10;;
5032;SDS011;2535;49.888;8.942;2023-06-24T06:40:08;48.43;;;2.80;;
5032;SDS011;2535;49.888;8.942;2023-06-24T06:42:34;46.87;;;2.63;;
5032;SDS011;2535;49.888;8.942;2023-06-24T06:45:00;45.60;;;2.37;;
5032;SDS011;2535;49.888;8.942;2023-06-24T06:47:27;45.40;;;2.50;;
5032;SDS011;2535;49.888;8.942;2023-06-24T06:49:53;44.17;;;2.03;;
5032;SDS011;2535;49.888;8.942;2023-06-24T06:52:19;44.23;;;2.13;;
5032;SDS011;2535;49.888;8.942;2023-06-24T06:54:45;44.60;;;2.43;;
5032;SDS011;2535;49.888;8.942;2023-06-24T06:57:11;47.30;;;3.10;;
5032;SDS011;2535;49.888;8.942;2023-06-24T06:59:37;44.80;;;3.13;;
5032;SDS011;2535;49.888;8.942;2023-06-24T07:02:03;45.67;;;3.10;;
5032;SDS011;2535;49.888;8.942;2023-06-24T07:04:30;47.50;;;2.37;;
5032;SDS011;2535;49.888;8.942;2023-06-24T07:06:57;47.03;;;3.23;;
5032;SDS011;2535;49.888;8.942;2023-06-24T07:09:23;44.27;;;2.60;;
5032;SDS011;2535;49.888;8.942;2023-06-24T07:11:49;47.20;;;2.53;;
5032;SDS011;2535;49.888;8.942;2023-06-24T07:14:15;44.50;;;2.93;;
5032;SDS011;2535;49.888;8.942;2023-06-24T07:16:41;43.30;;;2.37;;
5032;SDS011;2535;49.888;8.942;2023-06-24T07:19:07;46.03;;;2.50;;
5032;SDS011;2535;49.888;8.942;2023-06-24T07:21:33;43.67;;;2.07;;
5032;SDS011;2535;49.888;8.942;2023-06-24T07:23:59;45.90;;;2.47;;
5032;SDS011;2535;49.888;8.942;2023-06-24T07:26:25;44.33;;;2.87;;
5032;SDS011;2535;49.888;8.942;2023-06-24T07:28:53;43.97;;;2.37;;
5032;SDS011;2535;49.888;8.942;2023-06-24T07:31:19;47.07;;;2.60;;
5032;SDS011;2535;49.888;8.942;2023-06-24T07:33:45;43.07;;;2.40;;
5032;SDS011;2535;49.888;8.942;2023-06-24T07:36:11;48.00;;;2.47;;
5032;SDS011;2535;49.888;8.942;2023-06-24T07:38:38;43.37;;;1.97;;
5032;SDS011;2535;49.888;8.942;2023-06-24T07:41:04;43.13;;;1.97;;
5032;SDS011;2535;49.888;8.942;2023-06-24T07:43:30;42.17;;;1.90;;
5032;SDS011;2535;49.888;8.942;2023-06-24T07:45:56;43.20;;;2.50;;
5032;SDS011;2535;49.888;8.942;2023-06-24T07:48:22;42.17;;;2.30;;
5032;SDS011;2535;49.888;8.942;2023-06-24T07:50:48;43.90;;;2.50;;
5032;SDS011;2535;49.888;8.942;2023-06-24T07:53:14;44.73;;;2.90;;
5032;SDS011;2535;49.888;8.942;2023-06-24T07:55:40;44.20;;;3.10;;
5032;SDS011;2535;49.888;8.942;2023-06-24T07:58:06;43.40;;;2.80;;
5032;SDS011;2535;49.888;8.942;2023-06-24T08:00:32;43.90;;;2.53;;
5032;SDS011;2535;49.888;8.942;2023-06-24T08:02:58;42.50;;;2.10;;
5032;SDS011;2535;49.888;8.942;2023-06-24T08:05:24;45.20;;;2.43;;
5032;SDS011;2535;49.888;8.942;2023-06-24T08:07:51;41.80;;;2.13;;
5032;SDS011;2535;49.888;8.942;2023-06-24T08:10:17;43.00;;;2.20;;
5032;SDS011;2535;49.888;8.942;2023-06-24T08:12:43;42.10;;;2.30;;
5032;SDS011;2535;49.888;8.942;2023-06-24T08:15:09;45.60;;;2.80;;
5032;SDS011;2535;49.888;8.942;2023-06-24T08:17:35;41.93;;;2.10;;
5032;SDS011;2535;49.888;8.942;2023-06-24T08:20:02;43.17;;;2.87;;
5032;SDS011;2535;49.888;8.942;2023-06-24T08:22:28;44.30;;;2.60;;
5032;SDS011;2535;49.888;8.942;2023-06-24T08:24:54;42.77;;;2.70;;
5032;SDS011;2535;49.888;8.942;2023-06-24T08:27:20;41.27;;;1.97;;
5032;SDS011;2535;49.888;8.942;2023-06-24T08:29:46;45.47;;;3.77;;
5032;SDS011;2535;49.888;8.942;2023-06-24T08:32:12;42.90;;;2.07;;
5032;SDS011;2535;49.888;8.942;2023-06-24T08:34:38;40.77;;;1.50;;
5032;SDS011;2535;49.888;8.942;2023-06-24T08:37:04;42.80;;;2.70;;
5032;SDS011;2535;49.888;8.942;2023-06-24T08:39:30;44.00;;;2.47;;
5032;SDS011;2535;49.888;8.942;2023-06-24T08:41:56;42.40;;;2.20;;
5032;SDS011;2535;49.888;8.942;2023-06-24T08:44:22;43.60;;;2.83;;
5032;SDS011;2535;49.888;8.942;2023-06-24T08:46:48;40.50;;;1.77;;
5032;SDS011;2535;49.888;8.942;2023-06-24T08:51:46;41.10;;;2.30;;
5032;SDS011;2535;49.888;8.942;2023-06-24T08:54:14;42.97;;;2.67;;
5032;SDS011;2535;49.888;8.942;2023-06-24T08:56:40;41.60;;;2.43;;
5032;SDS011;2535;49.888;8.942;2023-06-24T08:59:08;40.67;;;2.20;;
5032;SDS011;2535;49.888;8.942;2023-06-24T09:01:34;42.10;;;2.40;;
5032;SDS011;2535;49.888;8.942;2023-06-24T09:04:00;42.83;;;2.50;;
5032;SDS011;2535;49.888;8.942;2023-06-24T09:06:26;43.30;;;2.87;;
5032;SDS011;2535;49.888;8.942;2023-06-24T09:08:55;39.50;;;1.70;;
5032;SDS011;2535;49.888;8.942;2023-06-24T09:11:22;40.80;;;2.17;;
5032;SDS011;2535;49.888;8.942;2023-06-24T09:13:50;40.70;;;1.87;;
5032;SDS011;2535;49.888;8.942;2023-06-24T09:16:20;39.90;;;2.10;;
5032;SDS011;2535;49.888;8.942;2023-06-24T09:18:49;40.90;;;2.50;;
5032;SDS011;2535;49.888;8.942;2023-06-24T09:21:25;41.10;;;2.27;;
5032;SDS011;2535;49.888;8.942;2023-06-24T09:23:54;40.93;;;2.20;;
5032;SDS011;2535;49.888;8.942;2023-06-24T09:26:22;39.67;;;1.50;;
5032;SDS011;2535;49.888;8.942;2023-06-24T09:28:49;39.90;;;1.90;;
5032;SDS011;2535;49.888;8.942;2023-06-24T09:31:15;40.70;;;2.50;;
5032;SDS011;2535;49.888;8.942;2023-06-24T09:33:41;41.70;;;2.53;;
5032;SDS011;2535;49.888;8.942;2023-06-24T09:36:07;38.77;;;1.50;;
5032;SDS011;2535;49.888;8.942;2023-06-24T09:38:37;39.23;;;1.80;;
5032;SDS011;2535;49.888;8.942;2023-06-24T09:41:06;40.57;;;2.00;;
5032;SDS011;2535;49.888;8.942;2023-06-24T09:43:35;40.53;;;1.93;;
5032;SDS011;2535;49.888;8.942;2023-06-24T09:46:02;41.80;;;2.33;;
5032;SDS011;2535;49.888;8.942;2023-06-24T09:48:29;39.40;;;2.00;;
5032;SDS011;2535;49.888;8.942;2023-06-24T09:50:56;39.87;;;2.40;;
5032;SDS011;2535;49.888;8.942;2023-06-24T09:53:24;41.40;;;2.13;;
5032;SDS011;2535;49.888;8.942;2023-06-24T09:55:51;40.30;;;2.07;;
5032;SDS011;2535;49.888;8.942;2023-06-24T09:58:18;40.13;;;2.33;;
5032;SDS011;2535;49.888;8.942;2023-06-24T10:00:45;39.60;;;2.50;;
5032;SDS011;2535;49.888;8.942;2023-06-24T10:03:11;38.30;;;1.60;;
5032;SDS011;2535;49.888;8.942;2023-06-24T10:05:37;40.57;;;2.27;;
5032;SDS011;2535;49.888;8.942;2023-06-24T10:08:04;39.90;;;2.30;;
5032;SDS011;2535;49.888;8.942;2023-06-24T10:10:30;39.47;;;2.40;;
5032;SDS011;2535;49.888;8.942;2023-06-24T10:12:56;38.57;;;1.73;;
5032;SDS011;2535;49.888;8.942;2023-06-24T10:15:23;38.50;;;1.70;;
5032;SDS011;2535;49.888;8.942;2023-06-24T10:17:50;40.07;;;2.07;;
5032;SDS011;2535;49.888;8.942;2023-06-24T10:20:25;38.23;;;1.67;;
5032;SDS011;2535;49.888;8.942;2023-06-24T10:22:51;37.87;;;1.40;;
5032;SDS011;2535;49.888;8.942;2023-06-24T10:25:18;38.53;;;2.00;;
5032;SDS011;2535;49.888;8.942;2023-06-24T10:27:45;37.77;;;1.57;;
5032;SDS011;2535;49.888;8.942;2023-06-24T10:30:17;38.10;;;1.50;;
5032;SDS011;2535;49.888;8.942;2023-06-24T10:32:50;37.60;;;1.47;;
5032;SDS011;2535;49.888;8.942;2023-06-24T10:35:23;37.20;;;1.30;;
5032;SDS011;2535;49.888;8.942;2023-06-24T10:37:59;37.07;;;1.43;;
5032;SDS011;2535;49.888;8.942;2023-06-24T10:40:41;38.50;;;1.80;;
5032;SDS011;2535;49.888;8.942;2023-06-24T10:43:41;37.70;;;1.77;;
5032;SDS011;2535;49.888;8.942;2023-06-24T10:46:00;43.70;;;1.87;;
5032;SDS011;2535;49.888;8.942;2023-06-24T10:48:26;36.60;;;1.57;;
5032;SDS011;2535;49.888;8.942;2023-06-24T10:50:52;37.40;;;1.70;;
5032;SDS011;2535;49.888;8.942;2023-06-24T10:53:18;36.20;;;1.33;;
5032;SDS011;2535;49.888;8.942;2023-06-24T10:55:44;39.47;;;1.90;;
5032;SDS011;2535;49.888;8.942;2023-06-24T10:58:12;36.77;;;1.77;;
5032;SDS011;2535;49.888;8.942;2023-06-24T11:00:39;41.70;;;1.40;;
5032;SDS011;2535;49.888;8.942;2023-06-24T11:03:14;36.20;;;1.50;;
5032;SDS011;2535;49.888;8.942;2023-06-24T11:05:41;36.27;;;1.63;;
5032;SDS011;2535;49.888;8.942;2023-06-24T11:08:08;37.60;;;1.93;;
5032;SDS011;2535;49.888;8.942;2023-06-24T11:10:41;36.37;;;1.63;;
5032;SDS011;2535;49.888;8.942;2023-06-24T11:13:07;39.80;;;1.87;;
5032;SDS011;2535;49.888;8.942;2023-06-24T11:15:33;36.47;;;1.20;;
5032;SDS011;2535;49.888;8.942;2023-06-24T11:18:01;36.40;;;2.10;;
5032;SDS011;2535;49.888;8.942;2023-06-24T11:20:28;36.87;;;1.50;;
5032;SDS011;2535;49.888;8.942;2023-06-24T11:22:54;36.03;;;1.60;;
5032;SDS011;2535;49.888;8.942;2023-06-24T11:25:21;36.07;;;1.43;;
5032;SDS011;2535;49.888;8.942;2023-06-24T11:27:47;37.00;;;2.20;;
5032;SDS011;2535;49.888;8.942;2023-06-24T11:30:15;36.00;;;1.67;;
5032;SDS011;2535;49.888;8.942;2023-06-24T11:32:42;35.27;;;1.77;;
5032;SDS011;2535;49.888;8.942;2023-06-24T11:35:09;35.40;;;1.40;;
5032;SDS011;2535;49.888;8.942;2023-06-24T11:37:36;34.97;;;1.20;;
5032;SDS011;2535;49.888;8.942;2023-06-24T11:40:06;34.90;;;1.87;;
5032;SDS011;2535;49.888;8.942;2023-06-24T11:42:35;34.70;;;1.40;;
5032;SDS011;2535;49.888;8.942;2023-06-24T11:45:02;35.20;;;1.30;;
5032;SDS011;2535;49.888;8.942;2023-06-24T11:47:32;34.80;;;1.83;;
5032;SDS011;2535;49.888;8.942;2023-06-24T11:49:58;35.00;;;1.67;;
5032;SDS011;2535;49.888;8.942;2023-06-24T11:55:01;35.00;;;2.20;;
5032;SDS011;2535;49.888;8.942;2023-06-24T12:00:13;34.47;;;1.47;;
5032;SDS011;2535;49.888;8.942;2023-06-24T12:02:39;33.93;;;1.57;;
5032;SDS011;2535;49.888;8.942;2023-06-24T12:05:05;34.67;;;1.47;;
5032;SDS011;2535;49.888;8.942;2023-06-24T12:07:31;33.97;;;1.00;;
5032;SDS011;2535;49.888;8.942;2023-06-24T12:09:57;34.90;;;1.57;;
5032;SDS011;2535;49.888;8.942;2023-06-24T12:12:23;34.20;;;1.20;;
5032;SDS011;2535;49.888;8.942;2023-06-24T12:14:49;34.33;;;1.50;;
5032;SDS011;2535;49.888;8.942;2023-06-24T12:17:15;34.63;;;1.23;;
5032;SDS011;2535;49.888;8.942;2023-06-24T12:19:41;35.43;;;1.80;;
5032;SDS011;2535;49.888;8.942;2023-06-24T12:22:07;35.80;;;1.50;;
5032;SDS011;2535;49.888;8.942;2023-06-24T12:24:33;35.27;;;1.40;;
5032;SDS011;2535;49.888;8.942;2023-06-24T12:26:59;36.47;;;2.00;;
5032;SDS011;2535;49.888;8.942;2023-06-24T12:29:25;34.50;;;1.47;;
5032;SDS011;2535;49.888;8.942;2023-06-24T12:31:51;34.87;;;1.50;;
5032;SDS011;2535;49.888;8.942;2023-06-24T12:34:17;34.60;;;1.70;;
5032;SDS011;2535;49.888;8.942;2023-06-24T12:36:43;35.17;;;1.73;;
5032;SDS011;2535;49.888;8.942;2023-06-24T12:39:09;34.27;;;1.63;;
5032;SDS011;2535;49.888;8.942;2023-06-24T12:41:35;33.00;;;1.43;;
5032;SDS011;2535;49.888;8.942;2023-06-24T12:44:01;33.40;;;1.33;;
5032;SDS011;2535;49.888;8.942;2023-06-24T12:46:28;33.00;;;1.23;;
5032;SDS011;2535;49.888;8.942;2023-06-24T12:48:54;33.00;;;1.50;;
5032;SDS011;2535;49.888;8.942;2023-06-24T12:51:20;32.60;;;1.50;;
5032;SDS011;2535;49.888;8.942;2023-06-24T12:53:46;32.60;;;1.10;;
5032;SDS011;2535;49.888;8.942;2023-06-24T12:56:12;33.17;;;1.50;;
5032;SDS011;2535;49.888;8.942;2023-06-24T12:58:37;34.23;;;1.50;;
5032;SDS011;2535;49.888;8.942;2023-06-24T13:01:03;33.07;;;1.83;;
5032;SDS011;2535;49.888;8.942;2023-06-24T13:03:29;32.57;;;1.43;;
5032;SDS011;2535;49.888;8.942;2023-06-24T13:05:55;35.10;;;1.70;;
5032;SDS011;2535;49.888;8.942;2023-06-24T13:08:22;31.67;;;1.33;;
5032;SDS011;2535;49.888;8.942;2023-06-24T13:10:48;33.93;;;2.40;;
5032;SDS011;2535;49.888;8.942;2023-06-24T13:13:14;32.63;;;1.33;;
5032;SDS011;2535;49.888;8.942;2023-06-24T13:15:40;32.30;;;1.50;;
5032;SDS011;2535;49.888;8.942;2023-06-24T13:18:06;33.60;;;1.80;;
5032;SDS011;2535;49.888;8.942;2023-06-24T13:20:32;32.73;;;1.30;;
5032;SDS011;2535;49.888;8.942;2023-06-24T13:22:58;32.40;;;1.80;;
5032;SDS011;2535;49.888;8.942;2023-06-24T13:25:24;32.00;;;1.40;;
5032;SDS011;2535;49.888;8.942;2023-06-24T13:27:50;31.63;;;1.50;;
5032;SDS011;2535;49.888;8.942;2023-06-24T13:30:16;32.13;;;1.77;;
5032;SDS011;2535;49.888;8.942;2023-06-24T13:32:42;30.93;;;1.33;;
5032;SDS011;2535;49.888;8.942;2023-06-24T13:35:08;30.20;;;1.27;;
5032;SDS011;2535;49.888;8.942;2023-06-24T13:37:35;32.50;;;1.37;;
5032;SDS011;2535;49.888;8.942;2023-06-24T13:40:01;31.00;;;1.53;;
5032;SDS011;2535;49.888;8.942;2023-06-24T13:42:28;30.17;;;1.60;;
5032;SDS011;2535;49.888;8.942;2023-06-24T13:44:54;31.17;;;2.20;;
5032;SDS011;2535;49.888;8.942;2023-06-24T13:47:20;30.80;;;1.30;;
5032;SDS011;2535;49.888;8.942;2023-06-24T13:49:47;29.20;;;1.20;;
5032;SDS011;2535;49.888;8.942;2023-06-24T13:52:13;29.47;;;1.57;;
5032;SDS011;2535;49.888;8.942;2023-06-24T13:54:39;28.40;;;1.30;;
5032;SDS011;2535;49.888;8.942;2023-06-24T13:57:05;29.80;;;1.80;;
5032;SDS011;2535;49.888;8.942;2023-06-24T13:59:31;29.80;;;1.60;;
5032;SDS011;2535;49.888;8.942;2023-06-24T14:01:57;29.27;;;1.87;;
5032;SDS011;2535;49.888;8.942;2023-06-24T14:04:23;29.67;;;1.43;;
5032;SDS011;2535;49.888;8.942;2023-06-24T14:06:49;27.93;;;1.50;;
5032;SDS011;2535;49.888;8.942;2023-06-24T14:09:15;28.10;;;1.60;;
5032;SDS011;2535;49.888;8.942;2023-06-24T14:11:41;27.80;;;1.43;;
5032;SDS011;2535;49.888;8.942;2023-06-24T14:14:07;26.57;;;1.23;;
5032;SDS011;2535;49.888;8.942;2023-06-24T14:16:33;26.57;;;1.60;;
5032;SDS011;2535;49.888;8.942;2023-06-24T14:18:59;27.13;;;1.50;;
5032;SDS011;2535;49.888;8.942;2023-06-24T14:21:25;28.23;;;1.80;;
5032;SDS011;2535;49.888;8.942;2023-06-24T14:23:51;26.83;;;1.27;;
5032;SDS011;2535;49.888;8.942;2023-06-24T14:26:17;26.73;;;1.40;;
5032;SDS011;2535;49.888;8.942;2023-06-24T14:31:18;26.73;;;1.40;;
5032;SDS011;2535;49.888;8.942;2023-06-24T14:33:44;26.73;;;1.40;;
5032;SDS011;2535;49.888;8.942;2023-06-24T14:36:10;25.83;;;1.37;;
5032;SDS011;2535;49.888;8.942;2023-06-24T14:38:36;26.03;;;1.17;;
5032;SDS011;2535;49.888;8.942;2023-06-24T14:41:02;26.27;;;1.37;;
5032;SDS011;2535;49.888;8.942;2023-06-24T14:43:28;25.83;;;1.40;;
5032;SDS011;2535;49.888;8.942;2023-06-24T14:45:54;26.30;;;1.43;;
5032;SDS011;2535;49.888;8.942;2023-06-24T14:48:22;25.77;;;1.20;;
5032;SDS011;2535;49.888;8.942;2023-06-24T14:50:48;25.80;;;1.17;;
5032;SDS011;2535;49.888;8.942;2023-06-24T14:53:14;26.20;;;1.23;;
5032;SDS011;2535;49.888;8.942;2023-06-24T14:55:40;24.90;;;1.20;;
5032;SDS011;2535;49.888;8.942;2023-06-24T14:58:06;25.07;;;1.43;;
5032;SDS011;2535;49.888;8.942;2023-06-24T15:00:32;24.93;;;1.10;;
5032;SDS011;2535;49.888;8.942;2023-06-24T15:02:58;24.57;;;1.50;;
5032;SDS011;2535;49.888;8.942;2023-06-24T15:05:24;24.90;;;1.20;;
5032;SDS011;2535;49.888;8.942;2023-06-24T15:07:50;24.27;;;1.10;;
5032;SDS011;2535;49.888;8.942;2023-06-24T15:10:16;25.30;;;1.50;;